Time;durP1;ratioP1;P1;durP2;ratioP2;P2;SDS_P1;SDS_P2;PMS_P1;PMS_P2;Temp;Humidity;BMP_temperature;BMP_pressure;BME280_temperature;BME280_humidity;BME280_pressure;Samples;Min_cycle;Max_cycle;Signal;HPM_P1;HPM_P2
2023/09/26 00:00:29;;;;;;;7.60;4.05;;;;;;;;;;1042472;28;20097;-66
2023/09/26 00:01:26;;;;;;;5.75;3.75;;;;;;;;;;1044408;28;20510;-66
2023/09/26 00:01:56;;;;;;;5.75;3.70;;;;;;;;;;1046577;28;20040;-66
2023/09/26 00:02:27;;;;;;;4.63;3.85;;;;;;;;;;1043329;28;20102;-66
2023/09/26 00:02:57;;;;;;;5.70;4.18;;;;;;;;;;1047292;28;20084;-66
2023/09/26 00:03:28;;;;;;;5.13;3.92;;;;;;;;;;1046158;28;20087;-67
2023/09/26 00:03:58;;;;;;;6.15;4.13;;;;;;;;;;1047245;28;20448;-66
2023/09/26 00:04:29;;;;;;;5.45;3.92;;;;;;;;;;1045677;28;20063;-66
2023/09/26 00:05:00;;;;;;;6.07;4.07;;;;;;;;;;1046629;28;20404;-66
2023/09/26 00:05:32;;;;;;;9.85;4.38;;;;;;;;;;1044104;28;20481;-66
2023/09/26 00:06:02;;;;;;;6.32;4.07;;;;;;;;;;1045129;28;20074;-66
2023/09/26 00:06:33;;;;;;;9.23;4.45;;;;;;;;;;1044896;28;20055;-66
2023/09/26 00:07:03;;;;;;;4.78;3.80;;;;;;;;;;1044405;28;20053;-66
2023/09/26 00:07:35;;;;;;;4.88;3.70;;;;;;;;;;1046706;28;20048;-66
2023/09/26 00:08:05;;;;;;;5.40;4.00;;;;;;;;;;1046101;28;20048;-66
2023/09/26 00:08:36;;;;;;;6.20;4.30;;;;;;;;;;1045857;28;20060;-66
2023/09/26 00:09:09;;;;;;;5.85;4.05;;;;;;;;;;1045724;28;20052;-66
2023/09/26 00:09:39;;;;;;;5.50;4.22;;;;;;;;;;1046109;28;20048;-66
2023/09/26 00:10:13;;;;;;;7.22;3.90;;;;;;;;;;1045369;28;20045;-66
2023/09/26 00:10:46;;;;;;;6.35;3.58;;;;;;;;;;1046517;28;20056;-66
2023/09/26 00:11:17;;;;;;;5.13;3.85;;;;;;;;;;1044831;28;20076;-66
2023/09/26 00:11:48;;;;;;;6.10;3.97;;;;;;;;;;1043018;28;20045;-66
2023/09/26 00:12:18;;;;;;;5.97;3.90;;;;;;;;;;1044782;28;20044;-66
2023/09/26 00:12:49;;;;;;;6.00;3.95;;;;;;;;;;1037895;28;20076;-66
2023/09/26 00:13:20;;;;;;;5.97;4.05;;;;;;;;;;1036559;28;20039;-66
2023/09/26 00:13:50;;;;;;;6.15;4.05;;;;;;;;;;1039580;28;20086;-66
2023/09/26 00:14:21;;;;;;;6.45;3.92;;;;;;;;;;1034660;28;20053;-66
2023/09/26 00:14:52;;;;;;;6.22;4.00;;;;;;;;;;1033969;28;20498;-66
2023/09/26 00:15:22;;;;;;;5.20;4.07;;;;;;;;;;1027371;28;20148;-66
2023/09/26 00:15:53;;;;;;;8.90;4.72;;;;;;;;;;1032449;28;20124;-67
2023/09/26 00:16:24;;;;;;;7.43;4.55;;;;;;;;;;1027065;28;20129;-66
2023/09/26 00:16:54;;;;;;;3.85;3.50;;;;;;;;;;1033738;28;20120;-66
2023/09/26 00:17:25;;;;;;;7.90;4.35;;;;;;;;;;1032716;28;20510;-66
2023/09/26 00:17:57;;;;;;;5.40;4.25;;;;;;;;;;1034515;28;20057;-66
2023/09/26 00:18:27;;;;;;;5.75;3.85;;;;;;;;;;1036702;28;20084;-66
2023/09/26 00:18:58;;;;;;;4.18;3.33;;;;;;;;;;1038702;28;21152;-66
2023/09/26 00:19:29;;;;;;;5.78;3.97;;;;;;;;;;1036740;28;20113;-66
2023/09/26 00:19:59;;;;;;;8.13;4.25;;;;;;;;;;1037053;28;20129;-66
2023/09/26 00:20:30;;;;;;;7.10;3.90;;;;;;;;;;1036350;28;20041;-66
2023/09/26 00:21:01;;;;;;;3.75;3.45;;;;;;;;;;1033820;28;20053;-66
2023/09/26 00:21:32;;;;;;;7.90;3.95;;;;;;;;;;1036878;28;20077;-66
2023/09/26 00:22:02;;;;;;;7.30;4.30;;;;;;;;;;1032531;28;20045;-66
2023/09/26 00:22:33;;;;;;;5.18;3.92;;;;;;;;;;1033557;28;20046;-66
2023/09/26 00:23:07;;;;;;;6.18;4.15;;;;;;;;;;1036029;28;20093;-66
2023/09/26 00:23:38;;;;;;;5.07;4.13;;;;;;;;;;1042194;28;20068;-66
2023/09/26 00:24:08;;;;;;;3.97;3.58;;;;;;;;;;1042123;28;20049;-67
2023/09/26 00:24:38;;;;;;;4.53;3.80;;;;;;;;;;1042821;28;20049;-66
2023/09/26 00:25:10;;;;;;;4.68;3.90;;;;;;;;;;1041120;28;20111;-66
2023/09/26 00:25:41;;;;;;;7.63;3.97;;;;;;;;;;1040834;28;20052;-66
2023/09/26 00:26:11;;;;;;;4.88;3.95;;;;;;;;;;1041729;28;20049;-66
2023/09/26 00:26:42;;;;;;;5.40;3.58;;;;;;;;;;1046947;28;20044;-66
2023/09/26 00:27:13;;;;;;;7.78;4.07;;;;;;;;;;1046982;28;20153;-66
2023/09/26 00:27:44;;;;;;;6.50;4.00;;;;;;;;;;1045419;28;20099;-66
2023/09/26 00:28:14;;;;;;;8.45;3.53;;;;;;;;;;1046307;28;20094;-66
2023/09/26 00:28:45;;;;;;;7.00;3.92;;;;;;;;;;1047140;28;20461;-66
2023/09/26 00:29:15;;;;;;;7.30;4.18;;;;;;;;;;1044736;28;20057;-66
2023/09/26 00:29:47;;;;;;;6.10;4.10;;;;;;;;;;1046485;28;20068;-66
2023/09/26 00:30:18;;;;;;;4.25;3.22;;;;;;;;;;1044364;28;20047;-66
2023/09/26 00:30:48;;;;;;;7.82;3.80;;;;;;;;;;1045875;28;20044;-66
2023/09/26 00:31:19;;;;;;;13.10;4.35;;;;;;;;;;1044690;28;20068;-66
2023/09/26 00:31:51;;;;;;;5.35;3.92;;;;;;;;;;1046191;28;22453;-66
2023/09/26 00:32:22;;;;;;;5.80;3.83;;;;;;;;;;1044540;28;20053;-66
2023/09/26 00:32:53;;;;;;;7.57;3.92;;;;;;;;;;1047054;28;20595;-66
2023/09/26 00:33:23;;;;;;;5.47;3.75;;;;;;;;;;1046532;28;20808;-66
2023/09/26 00:33:54;;;;;;;4.68;3.88;;;;;;;;;;1044263;28;20048;-66
2023/09/26 00:34:25;;;;;;;4.18;3.78;;;;;;;;;;1045537;28;20059;-66
2023/09/26 00:34:56;;;;;;;5.40;3.97;;;;;;;;;;1045851;28;20151;-66
2023/09/26 00:35:26;;;;;;;7.18;4.28;;;;;;;;;;1046287;28;20044;-66
2023/09/26 00:36:00;;;;;;;6.93;3.90;;;;;;;;;;1044982;28;20056;-66
2023/09/26 00:36:30;;;;;;;4.78;3.65;;;;;;;;;;1044958;28;20459;-66
2023/09/26 00:37:01;;;;;;;7.18;4.00;;;;;;;;;;1045066;28;20428;-66
2023/09/26 00:37:31;;;;;;;7.15;3.88;;;;;;;;;;1045472;28;20123;-66
2023/09/26 00:38:02;;;;;;;4.85;3.55;;;;;;;;;;1046342;28;20084;-66
2023/09/26 00:38:33;;;;;;;6.72;4.13;;;;;;;;;;1045377;28;20048;-66
2023/09/26 00:39:04;;;;;;;6.60;4.10;;;;;;;;;;1044440;28;20037;-66
2023/09/26 00:39:36;;;;;;;4.78;3.70;;;;;;;;;;1046804;28;20139;-66
2023/09/26 00:40:10;;;;;;;9.18;4.28;;;;;;;;;;1043752;28;20410;-66
2023/09/26 00:40:41;;;;;;;5.15;3.85;;;;;;;;;;1045183;28;20048;-66
2023/09/26 00:41:12;;;;;;;5.70;3.88;;;;;;;;;;1045866;28;20086;-66
2023/09/26 00:41:43;;;;;;;8.10;4.05;;;;;;;;;;1046745;28;20123;-66
2023/09/26 00:42:14;;;;;;;9.13;3.63;;;;;;;;;;1044448;28;20063;-66
2023/09/26 00:42:45;;;;;;;5.30;4.22;;;;;;;;;;1045539;28;20048;-66
2023/09/26 00:43:23;;;;;;;4.78;3.75;;;;;;;;;;1045249;28;20048;-66
2023/09/26 00:43:53;;;;;;;4.70;3.67;;;;;;;;;;1046022;28;20067;-66
2023/09/26 00:44:24;;;;;;;7.30;4.10;;;;;;;;;;1046629;28;20425;-66
2023/09/26 00:44:55;;;;;;;5.93;4.00;;;;;;;;;;1045363;28;20572;-66
2023/09/26 00:45:26;;;;;;;3.95;3.50;;;;;;;;;;1044311;28;20634;-66
2023/09/26 00:45:57;;;;;;;7.53;4.20;;;;;;;;;;1043405;28;20052;-66
2023/09/26 00:46:28;;;;;;;5.82;3.92;;;;;;;;;;1043883;28;20048;-66
2023/09/26 00:47:00;;;;;;;4.60;3.90;;;;;;;;;;1045768;28;20044;-66
2023/09/26 00:47:34;;;;;;;5.18;4.07;;;;;;;;;;1045777;28;20055;-66
2023/09/26 00:48:05;;;;;;;7.68;4.28;;;;;;;;;;1044819;28;20070;-66
2023/09/26 00:48:38;;;;;;;5.95;3.60;;;;;;;;;;1043739;28;20049;-66
2023/09/26 00:49:10;;;;;;;6.05;3.67;;;;;;;;;;1044958;28;20056;-66
2023/09/26 00:49:40;;;;;;;5.22;3.97;;;;;;;;;;1044966;28;20072;-66
2023/09/26 00:50:14;;;;;;;7.53;3.60;;;;;;;;;;1045448;28;20049;-66
2023/09/26 00:50:46;;;;;;;4.32;3.50;;;;;;;;;;1043985;28;20040;-66
2023/09/26 00:51:16;;;;;;;4.50;3.53;;;;;;;;;;1042185;28;20506;-66
2023/09/26 00:51:47;;;;;;;4.57;3.80;;;;;;;;;;1045846;28;20746;-66
2023/09/26 00:52:18;;;;;;;5.03;3.45;;;;;;;;;;1045950;28;20098;-66
2023/09/26 00:52:51;;;;;;;5.68;3.70;;;;;;;;;;1044020;28;20965;-66
2023/09/26 00:53:23;;;;;;;7.82;3.97;;;;;;;;;;1044719;28;20048;-66
2023/09/26 00:53:55;;;;;;;6.72;3.72;;;;;;;;;;1045115;28;22454;-66
2023/09/26 00:54:27;;;;;;;5.85;3.58;;;;;;;;;;1044535;28;20071;-66
2023/09/26 00:54:59;;;;;;;4.50;3.70;;;;;;;;;;1045215;28;20844;-66
2023/09/26 00:55:29;;;;;;;7.90;4.30;;;;;;;;;;1042804;28;20064;-66
2023/09/26 00:56:00;;;;;;;4.55;3.90;;;;;;;;;;1046020;28;20136;-66
2023/09/26 00:56:31;;;;;;;6.13;4.13;;;;;;;;;;1043552;28;20382;-66
2023/09/26 00:57:03;;;;;;;6.03;4.05;;;;;;;;;;1045161;28;20520;-66
2023/09/26 00:57:35;;;;;;;8.25;4.22;;;;;;;;;;1045659;28;20056;-66
2023/09/26 00:58:06;;;;;;;6.45;3.75;;;;;;;;;;1046574;28;20044;-66
2023/09/26 00:58:40;;;;;;;6.75;3.55;;;;;;;;;;1046046;28;20052;-66
2023/09/26 00:59:10;;;;;;;5.25;3.42;;;;;;;;;;1045973;28;20415;-66
2023/09/26 00:59:41;;;;;;;8.80;4.22;;;;;;;;;;1045853;28;20436;-66
2023/09/26 01:00:15;;;;;;;5.35;3.63;;;;;;;;;;1045064;28;20055;-66
2023/09/26 01:00:45;;;;;;;6.22;4.30;;;;;;;;;;1045750;28;20048;-66
2023/09/26 01:01:16;;;;;;;7.32;4.15;;;;;;;;;;1044665;28;20037;-66
2023/09/26 01:01:49;;;;;;;6.45;4.13;;;;;;;;;;1045078;28;20044;-66
2023/09/26 01:02:20;;;;;;;4.15;3.70;;;;;;;;;;1045180;28;20055;-66
2023/09/26 01:02:50;;;;;;;4.95;4.20;;;;;;;;;;1044626;28;20051;-66
2023/09/26 01:03:21;;;;;;;7.75;4.15;;;;;;;;;;1042074;28;20096;-66
2023/09/26 01:03:53;;;;;;;6.97;4.05;;;;;;;;;;1041359;28;20061;-66
2023/09/26 01:04:24;;;;;;;8.90;4.55;;;;;;;;;;1045565;28;20135;-66
2023/09/26 01:04:54;;;;;;;7.22;4.13;;;;;;;;;;1045314;28;20052;-66
2023/09/26 01:05:26;;;;;;;4.97;4.10;;;;;;;;;;1044986;28;20427;-66
2023/09/26 01:05:57;;;;;;;5.95;4.63;;;;;;;;;;1046036;28;20058;-66
2023/09/26 01:06:27;;;;;;;6.53;4.45;;;;;;;;;;1045265;28;20071;-66
2023/09/26 01:06:58;;;;;;;9.27;4.57;;;;;;;;;;1046481;28;20049;-66
2023/09/26 01:07:28;;;;;;;9.10;4.30;;;;;;;;;;1044364;28;20056;-66
2023/09/26 01:07:59;;;;;;;9.85;4.65;;;;;;;;;;1046901;28;20063;-66
2023/09/26 01:08:30;;;;;;;7.25;4.18;;;;;;;;;;1044804;28;20048;-66
2023/09/26 01:09:01;;;;;;;6.10;4.43;;;;;;;;;;1047018;28;20076;-66
2023/09/26 01:09:31;;;;;;;7.72;4.25;;;;;;;;;;1045554;28;20041;-66
2023/09/26 01:10:07;;;;;;;7.00;4.22;;;;;;;;;;1046115;28;20098;-66
2023/09/26 01:10:37;;;;;;;5.95;4.85;;;;;;;;;;1044908;28;20385;-66
2023/09/26 01:11:08;;;;;;;7.57;4.07;;;;;;;;;;1045832;28;20457;-66
2023/09/26 01:11:39;;;;;;;6.53;4.25;;;;;;;;;;1046118;28;20500;-66
2023/09/26 01:12:11;;;;;;;6.00;4.50;;;;;;;;;;1045463;28;20426;-66
2023/09/26 01:12:42;;;;;;;7.90;4.50;;;;;;;;;;1045294;28;20171;-66
2023/09/26 01:13:12;;;;;;;5.57;4.03;;;;;;;;;;1046476;28;20044;-66
2023/09/26 01:13:45;;;;;;;5.05;4.28;;;;;;;;;;1045819;28;20048;-66
2023/09/26 01:14:15;;;;;;;4.85;3.92;;;;;;;;;;1045938;28;20051;-66
2023/09/26 01:14:46;;;;;;;6.28;4.32;;;;;;;;;;1046128;28;20072;-66
2023/09/26 01:15:39;;;;;;;5.95;4.50;;;;;;;;;;1045192;28;20133;-66
2023/09/26 01:16:14;;;;;;;4.63;4.13;;;;;;;;;;1044641;28;20396;-66
2023/09/26 01:16:45;;;;;;;6.47;4.03;;;;;;;;;;1045384;28;20393;-66
2023/09/26 01:17:15;;;;;;;8.52;4.05;;;;;;;;;;1043201;28;20483;-66
2023/09/26 01:17:46;;;;;;;5.88;4.57;;;;;;;;;;1046027;28;20044;-66
2023/09/26 01:18:17;;;;;;;7.90;4.05;;;;;;;;;;1045498;28;20052;-66
2023/09/26 01:18:47;;;;;;;7.75;4.45;;;;;;;;;;1045075;28;20095;-66
2023/09/26 01:19:18;;;;;;;6.95;4.28;;;;;;;;;;1045140;28;20055;-66
2023/09/26 01:19:48;;;;;;;6.93;4.22;;;;;;;;;;1046824;28;20400;-66
2023/09/26 01:20:19;;;;;;;6.88;4.32;;;;;;;;;;1045749;28;20090;-66
2023/09/26 01:20:51;;;;;;;7.65;4.50;;;;;;;;;;1045901;28;20045;-66
2023/09/26 01:21:21;;;;;;;5.30;4.22;;;;;;;;;;1044300;28;20419;-66
2023/09/26 01:21:52;;;;;;;6.07;4.20;;;;;;;;;;1044819;28;20758;-66
2023/09/26 01:22:26;;;;;;;8.65;4.43;;;;;;;;;;1046148;28;20095;-66
2023/09/26 01:22:56;;;;;;;7.25;4.30;;;;;;;;;;1045770;28;20055;-66
2023/09/26 01:23:28;;;;;;;6.78;4.60;;;;;;;;;;1045237;28;20052;-66
2023/09/26 01:23:58;;;;;;;4.65;3.95;;;;;;;;;;1046155;28;20045;-66
2023/09/26 01:24:29;;;;;;;4.88;4.13;;;;;;;;;;1045671;28;20049;-66
2023/09/26 01:25:00;;;;;;;7.10;4.28;;;;;;;;;;1045655;28;20081;-66
2023/09/26 01:25:32;;;;;;;6.03;3.80;;;;;;;;;;1043616;28;20049;-66
2023/09/26 01:26:03;;;;;;;5.55;4.00;;;;;;;;;;1044947;28;20151;-66
2023/09/26 01:26:37;;;;;;;8.63;4.68;;;;;;;;;;1046609;28;20040;-66
2023/09/26 01:27:08;;;;;;;4.32;3.75;;;;;;;;;;1045061;28;20111;-66
2023/09/26 01:27:39;;;;;;;5.25;4.03;;;;;;;;;;1045131;28;20044;-66
2023/09/26 01:28:14;;;;;;;5.90;4.13;;;;;;;;;;1044372;28;20044;-66
2023/09/26 01:28:45;;;;;;;6.63;3.65;;;;;;;;;;1045906;28;20052;-66
2023/09/26 01:29:15;;;;;;;5.90;4.07;;;;;;;;;;1044956;28;20127;-66
2023/09/26 01:29:47;;;;;;;5.78;3.72;;;;;;;;;;1045768;28;20078;-66
2023/09/26 01:30:18;;;;;;;5.28;4.18;;;;;;;;;;1044606;28;20040;-66
2023/09/26 01:30:48;;;;;;;5.95;4.13;;;;;;;;;;1045878;28;20045;-66
2023/09/26 01:31:19;;;;;;;6.03;4.18;;;;;;;;;;1044708;28;20508;-66
2023/09/26 01:31:50;;;;;;;5.25;3.92;;;;;;;;;;1044724;28;20127;-66
2023/09/26 01:32:20;;;;;;;8.30;4.05;;;;;;;;;;1044955;28;20048;-66
2023/09/26 01:32:51;;;;;;;6.95;4.55;;;;;;;;;;1046183;28;20132;-66
2023/09/26 01:33:22;;;;;;;7.55;4.00;;;;;;;;;;1045428;28;20052;-67
2023/09/26 01:33:53;;;;;;;6.95;3.97;;;;;;;;;;1045663;28;20048;-66
2023/09/26 01:34:23;;;;;;;5.47;4.43;;;;;;;;;;1046253;28;20056;-66
2023/09/26 01:34:53;;;;;;;5.55;4.30;;;;;;;;;;1045583;28;20117;-66
2023/09/26 01:35:24;;;;;;;7.00;4.07;;;;;;;;;;1044660;28;20824;-67
2023/09/26 01:35:55;;;;;;;7.18;4.40;;;;;;;;;;1044966;28;20040;-66
2023/09/26 01:36:27;;;;;;;8.43;4.50;;;;;;;;;;1045516;28;20063;-66
2023/09/26 01:36:57;;;;;;;6.15;4.15;;;;;;;;;;1046403;28;21049;-66
2023/09/26 01:37:27;;;;;;;5.72;4.47;;;;;;;;;;1044200;28;20466;-66
2023/09/26 01:37:58;;;;;;;6.28;4.70;;;;;;;;;;1043698;28;20053;-66
2023/09/26 01:38:28;;;;;;;6.63;4.10;;;;;;;;;;1045725;28;20055;-66
2023/09/26 01:38:59;;;;;;;4.25;3.80;;;;;;;;;;1046066;28;20125;-66
2023/09/26 01:39:30;;;;;;;6.55;3.78;;;;;;;;;;1044601;28;20476;-66
2023/09/26 01:40:02;;;;;;;5.10;4.10;;;;;;;;;;1045497;28;20041;-66
2023/09/26 01:40:32;;;;;;;9.07;4.13;;;;;;;;;;1045462;28;20056;-66
2023/09/26 01:41:03;;;;;;;6.38;3.88;;;;;;;;;;1044996;28;20055;-66
2023/09/26 01:41:33;;;;;;;6.03;4.10;;;;;;;;;;1045477;28;20067;-66
2023/09/26 01:42:04;;;;;;;5.28;3.80;;;;;;;;;;1044842;28;20056;-66
2023/09/26 01:42:34;;;;;;;4.38;3.90;;;;;;;;;;1044327;28;20111;-66
2023/09/26 01:43:05;;;;;;;7.88;4.43;;;;;;;;;;1044845;28;20060;-66
2023/09/26 01:43:36;;;;;;;9.40;4.43;;;;;;;;;;1045297;28;20052;-67
2023/09/26 01:44:06;;;;;;;5.38;3.83;;;;;;;;;;1045327;28;20053;-66
2023/09/26 01:44:37;;;;;;;9.63;4.47;;;;;;;;;;1045311;28;20049;-66
2023/09/26 01:45:08;;;;;;;7.97;4.57;;;;;;;;;;1042503;28;20083;-66
2023/09/26 01:45:39;;;;;;;9.00;3.97;;;;;;;;;;1044574;28;20040;-66
2023/09/26 01:46:10;;;;;;;9.88;4.57;;;;;;;;;;1043281;28;20044;-66
2023/09/26 01:46:40;;;;;;;8.30;4.85;;;;;;;;;;1043950;28;20052;-66
2023/09/26 01:47:18;;;;;;;6.15;4.10;;;;;;;;;;1044578;28;20067;-66
2023/09/26 01:47:50;;;;;;;9.68;4.50;;;;;;;;;;1044574;28;20568;-66
2023/09/26 01:48:21;;;;;;;6.40;3.75;;;;;;;;;;1043069;28;20052;-66
2023/09/26 01:48:51;;;;;;;7.13;4.22;;;;;;;;;;1046068;28;20055;-66
2023/09/26 01:49:22;;;;;;;9.00;4.60;;;;;;;;;;1045346;28;20051;-66
2023/09/26 01:49:53;;;;;;;6.07;4.00;;;;;;;;;;1045659;28;20594;-66
2023/09/26 01:50:23;;;;;;;6.88;4.05;;;;;;;;;;1045778;28;20060;-66
2023/09/26 01:50:54;;;;;;;4.68;4.10;;;;;;;;;;1046601;28;20703;-66
2023/09/26 01:51:24;;;;;;;6.68;3.60;;;;;;;;;;1045532;28;20055;-66
2023/09/26 01:51:55;;;;;;;6.15;3.95;;;;;;;;;;1045148;28;20045;-66
2023/09/26 01:52:25;;;;;;;6.63;4.47;;;;;;;;;;1044607;28;20040;-66
2023/09/26 01:52:56;;;;;;;8.88;4.15;;;;;;;;;;1046072;28;20504;-66
2023/09/26 01:53:26;;;;;;;6.03;3.95;;;;;;;;;;1044880;28;20059;-66
2023/09/26 01:53:57;;;;;;;7.18;3.80;;;;;;;;;;1045761;28;20057;-66
2023/09/26 01:54:27;;;;;;;6.18;4.03;;;;;;;;;;1045064;28;20058;-66
2023/09/26 01:54:58;;;;;;;5.65;3.92;;;;;;;;;;1046762;28;20136;-66
2023/09/26 01:55:28;;;;;;;5.47;4.57;;;;;;;;;;1045031;28;20114;-66
2023/09/26 01:55:59;;;;;;;7.40;4.20;;;;;;;;;;1046494;28;20052;-66
2023/09/26 01:56:33;;;;;;;4.80;3.85;;;;;;;;;;1045031;28;20610;-66
2023/09/26 01:57:06;;;;;;;5.88;4.13;;;;;;;;;;1044796;28;20101;-66
2023/09/26 01:57:36;;;;;;;4.78;3.97;;;;;;;;;;1044239;28;20139;-66
2023/09/26 01:58:07;;;;;;;6.85;4.03;;;;;;;;;;1044843;28;20049;-66
2023/09/26 01:58:37;;;;;;;4.70;3.70;;;;;;;;;;1045787;28;20056;-66
2023/09/26 01:59:08;;;;;;;7.00;4.20;;;;;;;;;;1044326;28;20128;-66
2023/09/26 01:59:39;;;;;;;9.35;3.78;;;;;;;;;;1045995;28;20582;-66
2023/09/26 02:00:13;;;;;;;4.97;3.88;;;;;;;;;;1043260;28;20059;-66
2023/09/26 02:00:43;;;;;;;6.18;4.55;;;;;;;;;;1046456;28;20051;-66
2023/09/26 02:01:14;;;;;;;5.65;3.72;;;;;;;;;;1044519;28;20052;-66
2023/09/26 02:01:44;;;;;;;6.45;4.03;;;;;;;;;;1045651;28;20068;-66
2023/09/26 02:02:15;;;;;;;7.00;4.25;;;;;;;;;;1044921;28;20053;-66
2023/09/26 02:02:50;;;;;;;6.05;3.80;;;;;;;;;;1046960;28;20159;-66
2023/09/26 02:03:21;;;;;;;6.93;4.03;;;;;;;;;;1045135;28;20497;-66
2023/09/26 02:03:52;;;;;;;4.57;3.90;;;;;;;;;;1046619;28;20068;-66
2023/09/26 02:04:23;;;;;;;6.55;4.00;;;;;;;;;;1043997;28;20048;-66
2023/09/26 02:04:53;;;;;;;6.32;4.30;;;;;;;;;;1045145;28;20048;-66
2023/09/26 02:05:24;;;;;;;5.68;3.90;;;;;;;;;;1043935;28;20051;-66
2023/09/26 02:05:56;;;;;;;4.82;3.78;;;;;;;;;;1046882;28;20197;-66
2023/09/26 02:06:27;;;;;;;4.85;4.10;;;;;;;;;;1045626;28;20051;-66
2023/09/26 02:06:57;;;;;;;8.00;3.72;;;;;;;;;;1043801;28;20060;-66
2023/09/26 02:07:28;;;;;;;6.47;3.90;;;;;;;;;;1043184;28;20410;-66
2023/09/26 02:07:58;;;;;;;5.97;4.18;;;;;;;;;;1045311;28;20052;-66
2023/09/26 02:08:29;;;;;;;8.10;4.18;;;;;;;;;;1043979;28;20135;-66
2023/09/26 02:09:00;;;;;;;4.45;3.63;;;;;;;;;;1044132;28;20492;-66
2023/09/26 02:09:30;;;;;;;6.63;3.85;;;;;;;;;;1042177;28;20056;-66
2023/09/26 02:10:03;;;;;;;5.03;3.78;;;;;;;;;;1046509;28;20052;-66
2023/09/26 02:10:34;;;;;;;5.35;3.85;;;;;;;;;;1046401;28;20074;-66
2023/09/26 02:11:04;;;;;;;8.07;4.22;;;;;;;;;;1046025;28;20131;-66
2023/09/26 02:11:35;;;;;;;4.97;4.03;;;;;;;;;;1041760;28;20114;-66
2023/09/26 02:12:07;;;;;;;7.30;4.25;;;;;;;;;;1040415;28;20174;-66
2023/09/26 02:12:40;;;;;;;6.15;3.90;;;;;;;;;;1041332;28;20056;-66
2023/09/26 02:13:11;;;;;;;4.97;3.83;;;;;;;;;;1040695;28;20735;-66
2023/09/26 02:13:41;;;;;;;7.63;4.20;;;;;;;;;;1041515;28;20496;-66
2023/09/26 02:14:12;;;;;;;6.72;4.53;;;;;;;;;;1040827;28;20052;-66
2023/09/26 02:14:42;;;;;;;6.72;4.40;;;;;;;;;;1042606;28;20064;-66
2023/09/26 02:15:13;;;;;;;7.55;4.40;;;;;;;;;;1038556;28;20175;-66
2023/09/26 02:15:44;;;;;;;6.00;4.10;;;;;;;;;;1041095;28;20067;-66
2023/09/26 02:16:14;;;;;;;5.18;4.30;;;;;;;;;;1042945;28;20492;-66
2023/09/26 02:16:45;;;;;;;6.65;4.07;;;;;;;;;;1046771;28;20048;-66
2023/09/26 02:17:15;;;;;;;8.07;4.40;;;;;;;;;;1043825;28;20048;-66
2023/09/26 02:17:46;;;;;;;5.88;4.45;;;;;;;;;;1041741;28;20151;-66
2023/09/26 02:18:17;;;;;;;5.90;4.20;;;;;;;;;;1040962;28;20081;-66
2023/09/26 02:18:47;;;;;;;6.07;4.20;;;;;;;;;;1045066;28;20044;-66
2023/09/26 02:19:17;;;;;;;5.20;3.70;;;;;;;;;;1045699;28;20090;-66
2023/09/26 02:19:48;;;;;;;6.40;4.10;;;;;;;;;;1045731;28;20052;-65
2023/09/26 02:20:19;;;;;;;7.13;4.55;;;;;;;;;;1045039;28;20055;-66
2023/09/26 02:20:50;;;;;;;7.70;4.30;;;;;;;;;;1046276;28;20049;-67
2023/09/26 02:21:21;;;;;;;4.20;3.80;;;;;;;;;;1045116;28;20052;-66
2023/09/26 02:21:51;;;;;;;5.03;3.85;;;;;;;;;;1045405;28;20048;-66
2023/09/26 02:22:21;;;;;;;4.82;3.85;;;;;;;;;;1045915;28;20413;-66
2023/09/26 02:22:52;;;;;;;5.28;3.80;;;;;;;;;;1045716;28;20048;-67
2023/09/26 02:23:22;;;;;;;5.88;4.15;;;;;;;;;;1045515;28;20165;-66
2023/09/26 02:23:53;;;;;;;7.80;3.80;;;;;;;;;;1045943;28;20072;-66
2023/09/26 02:24:23;;;;;;;6.07;4.30;;;;;;;;;;1043637;28;20048;-66
2023/09/26 02:24:54;;;;;;;5.22;3.97;;;;;;;;;;1045727;28;20044;-66
2023/09/26 02:25:25;;;;;;;6.80;4.22;;;;;;;;;;1044619;28;20524;-66
2023/09/26 02:25:56;;;;;;;8.45;4.20;;;;;;;;;;1045841;28;20041;-66
2023/09/26 02:26:26;;;;;;;4.55;3.80;;;;;;;;;;1044770;28;20117;-66
2023/09/26 02:26:57;;;;;;;6.05;3.70;;;;;;;;;;1045964;28;20820;-66
2023/09/26 02:27:28;;;;;;;5.15;3.80;;;;;;;;;;1045148;28;20063;-66
2023/09/26 02:27:58;;;;;;;7.70;4.25;;;;;;;;;;1046073;28;20151;-66
2023/09/26 02:28:29;;;;;;;6.57;4.35;;;;;;;;;;1044751;28;20060;-66
2023/09/26 02:29:00;;;;;;;8.68;3.80;;;;;;;;;;1044411;28;20053;-66
2023/09/26 02:29:30;;;;;;;6.07;4.05;;;;;;;;;;1043010;28;20052;-66
2023/09/26 02:30:01;;;;;;;6.68;4.90;;;;;;;;;;1046407;28;20123;-66
2023/09/26 02:30:31;;;;;;;6.80;3.95;;;;;;;;;;1044922;28;20450;-66
2023/09/26 02:31:02;;;;;;;5.95;4.32;;;;;;;;;;1043932;28;20507;-66
2023/09/26 02:31:32;;;;;;;6.15;4.40;;;;;;;;;;1042559;28;20088;-66
2023/09/26 02:32:04;;;;;;;3.95;3.55;;;;;;;;;;1045495;28;20056;-66
2023/09/26 02:32:35;;;;;;;6.60;4.40;;;;;;;;;;1045587;28;20123;-66
2023/09/26 02:33:05;;;;;;;6.90;4.40;;;;;;;;;;1046075;28;20056;-66
2023/09/26 02:33:36;;;;;;;6.53;4.28;;;;;;;;;;1044908;28;20040;-66
2023/09/26 02:34:06;;;;;;;6.05;4.10;;;;;;;;;;1044250;28;20565;-66
2023/09/26 02:34:37;;;;;;;5.53;4.13;;;;;;;;;;1044482;28;20126;-66
2023/09/26 02:35:12;;;;;;;7.38;4.20;;;;;;;;;;1045457;28;20053;-66
2023/09/26 02:35:42;;;;;;;6.20;4.32;;;;;;;;;;1041543;28;20057;-66
2023/09/26 02:36:13;;;;;;;6.45;4.18;;;;;;;;;;1039406;28;20072;-66
2023/09/26 02:36:43;;;;;;;6.30;5.00;;;;;;;;;;1042447;28;20052;-66
2023/09/26 02:37:14;;;;;;;4.28;3.83;;;;;;;;;;1042956;28;20049;-66
2023/09/26 02:37:44;;;;;;;7.13;4.43;;;;;;;;;;1044336;28;20150;-66
2023/09/26 02:38:15;;;;;;;10.65;4.35;;;;;;;;;;1041834;28;20048;-66
2023/09/26 02:38:46;;;;;;;5.43;3.88;;;;;;;;;;1040405;28;20052;-66
2023/09/26 02:39:17;;;;;;;5.63;4.25;;;;;;;;;;1043613;28;20063;-66
2023/09/26 02:39:47;;;;;;;5.45;4.32;;;;;;;;;;1044404;28;20105;-66
2023/09/26 02:40:18;;;;;;;5.68;4.47;;;;;;;;;;1043792;28;20048;-66
2023/09/26 02:40:48;;;;;;;8.00;4.25;;;;;;;;;;1041591;28;20045;-66
2023/09/26 02:41:19;;;;;;;4.30;3.90;;;;;;;;;;1043310;28;20480;-66
2023/09/26 02:41:50;;;;;;;6.03;4.30;;;;;;;;;;1046273;28;20083;-66
2023/09/26 02:42:20;;;;;;;6.10;4.00;;;;;;;;;;1045814;28;20041;-66
2023/09/26 02:42:51;;;;;;;5.38;4.10;;;;;;;;;;1045500;28;20040;-66
2023/09/26 02:43:21;;;;;;;9.13;4.55;;;;;;;;;;1044899;28;20056;-66
2023/09/26 02:43:55;;;;;;;6.53;3.83;;;;;;;;;;1045843;28;20048;-66
2023/09/26 02:44:26;;;;;;;7.13;4.18;;;;;;;;;;1045060;28;20531;-66
2023/09/26 02:44:56;;;;;;;6.57;3.78;;;;;;;;;;1045868;28;20968;-66
2023/09/26 02:45:27;;;;;;;5.15;4.22;;;;;;;;;;1044256;28;20052;-66
2023/09/26 02:45:58;;;;;;;5.70;4.07;;;;;;;;;;1046337;28;20693;-66
2023/09/26 02:46:29;;;;;;;6.00;4.13;;;;;;;;;;1044956;28;20437;-66
2023/09/26 02:46:59;;;;;;;6.80;4.18;;;;;;;;;;1046052;28;20431;-66
2023/09/26 02:47:31;;;;;;;8.02;4.38;;;;;;;;;;1044874;28;20131;-66
2023/09/26 02:48:04;;;;;;;6.38;3.97;;;;;;;;;;1045008;28;20054;-66
2023/09/26 02:48:35;;;;;;;4.72;3.58;;;;;;;;;;1042912;28;20746;-66
2023/09/26 02:49:05;;;;;;;4.93;3.88;;;;;;;;;;1045512;28;20440;-66
2023/09/26 02:49:36;;;;;;;6.47;4.13;;;;;;;;;;1044531;28;20075;-66
2023/09/26 02:50:07;;;;;;;4.72;3.78;;;;;;;;;;1044696;28;20066;-66
2023/09/26 02:50:38;;;;;;;6.72;3.95;;;;;;;;;;1043307;28;20059;-66
2023/09/26 02:51:09;;;;;;;6.05;4.20;;;;;;;;;;1043019;28;20048;-66
2023/09/26 02:51:39;;;;;;;5.50;4.38;;;;;;;;;;1045007;28;20048;-66
2023/09/26 02:52:10;;;;;;;6.40;4.50;;;;;;;;;;1045064;28;20056;-66
2023/09/26 02:52:42;;;;;;;6.90;4.00;;;;;;;;;;1043871;28;20131;-66
2023/09/26 02:53:12;;;;;;;5.38;4.10;;;;;;;;;;1044400;28;20056;-66
2023/09/26 02:53:43;;;;;;;7.15;4.63;;;;;;;;;;1044212;28;20052;-66
2023/09/26 02:54:14;;;;;;;8.30;4.35;;;;;;;;;;1044232;28;20063;-66
2023/09/26 02:54:44;;;;;;;5.10;3.90;;;;;;;;;;1045255;28;20056;-66
2023/09/26 02:55:15;;;;;;;5.43;4.22;;;;;;;;;;1043940;28;20560;-66
2023/09/26 02:55:45;;;;;;;6.30;4.20;;;;;;;;;;1045767;28;20049;-66
2023/09/26 02:56:16;;;;;;;6.05;4.18;;;;;;;;;;1044285;28;20059;-66
2023/09/26 02:56:46;;;;;;;7.65;3.75;;;;;;;;;;1045249;28;20698;-66
2023/09/26 02:57:18;;;;;;;5.28;4.30;;;;;;;;;;1044795;28;20735;-66
2023/09/26 02:57:49;;;;;;;6.68;4.18;;;;;;;;;;1046585;28;20044;-66
2023/09/26 02:58:19;;;;;;;4.70;3.88;;;;;;;;;;1044849;28;20048;-66
2023/09/26 02:58:50;;;;;;;6.60;4.10;;;;;;;;;;1045863;28;20053;-66
2023/09/26 02:59:20;;;;;;;6.05;4.10;;;;;;;;;;1044994;28;20067;-66
2023/09/26 02:59:51;;;;;;;6.00;3.92;;;;;;;;;;1044773;28;20568;-66
2023/09/26 03:00:21;;;;;;;5.55;4.00;;;;;;;;;;1043808;28;20053;-66
2023/09/26 03:00:52;;;;;;;6.78;3.88;;;;;;;;;;1045712;28;20048;-66
2023/09/26 03:01:23;;;;;;;6.20;4.22;;;;;;;;;;1043945;28;20057;-66
2023/09/26 03:01:53;;;;;;;4.80;3.88;;;;;;;;;;1045151;28;20397;-66
2023/09/26 03:02:24;;;;;;;6.75;4.30;;;;;;;;;;1045328;28;20056;-66
2023/09/26 03:02:55;;;;;;;5.45;4.07;;;;;;;;;;1045737;28;20055;-66
2023/09/26 03:03:25;;;;;;;5.45;4.13;;;;;;;;;;1044724;28;20048;-66
2023/09/26 03:03:56;;;;;;;5.88;4.35;;;;;;;;;;1046023;28;20082;-66
2023/09/26 03:04:26;;;;;;;5.47;3.85;;;;;;;;;;1044008;28;20056;-66
2023/09/26 03:04:57;;;;;;;5.00;4.00;;;;;;;;;;1044206;28;20048;-66
2023/09/26 03:05:27;;;;;;;7.30;4.03;;;;;;;;;;1045946;28;20127;-66
2023/09/26 03:05:58;;;;;;;9.98;4.18;;;;;;;;;;1044840;28;20400;-66
2023/09/26 03:06:29;;;;;;;4.47;4.00;;;;;;;;;;1045525;28;20052;-66
2023/09/26 03:06:59;;;;;;;7.95;4.15;;;;;;;;;;1045841;28;20074;-66